Monday, June 24, 2019, 8:09 PM EDT
Back to Local

KBLM, Belmar-farmingdale

Location: Farmingdale, NJ, United States Lat: 40.183
Local Time: 8:09 PM EDT ( 0:09 GMT) Lon: -74.133
Time Zone: US/Eastern Elev: 157 ft

Show me the last for .
Show Coded

Time T Td Feel RH Dir Speed Gust Alt SLP Vis Weather Sky Remarks
2019-06-24 19:56 78 64 80 62 Variable 6 - 29.85 29.85 10 CLR 6-hr Min Temp (8pm): 78.1°F
6-hr Max Temp (8pm): 86.0°F
2019-06-24 18:56 78 69 82 73 150° 7 - 29.85 29.85 10 CLR None
2019-06-24 17:56 79 68 82 69 150° 7 - 29.86 29.86 10 CLR None
2019-06-24 16:56 81 67 84 62 120° 8 - 29.87 29.86 10 CLR None
2019-06-24 15:56 82 63 84 52 170° 6 - 29.87 29.87 10 CLR None
2019-06-24 14:56 79 62 81 56 140° 6 - 29.89 29.88 10 CLR None
2019-06-24 13:56 86 55 - 34 220° 8 - 29.88 29.88 10 CLR 6-hr Min Temp (2pm): 72.0°F
6-hr Max Temp (2pm): 86.0°F
2019-06-24 12:56 85 54 - 34 210° 7 - 29.90 29.89 10 CLR None
2019-06-24 11:56 83 57 83 41 270° 10 - 29.91 29.90 10 CLR None
2019-06-24 10:56 82 59 83 45 Variable 7 - 29.91 29.90 10 CLR None
2019-06-24 09:56 79 59 80 50 240° 9 - 29.92 29.91 10 CLR None
2019-06-24 08:56 77 59 79 53 270° 7 - 29.91 29.91 10 CLR None
2019-06-24 07:56 72 61 76 68 250° 5 - 29.92 29.92 10 CLR 6-hr Min Temp (8am): 60.1°F
6-hr Max Temp (8am): 72.0°F
2019-06-24 06:56 64 58 - 80 240° 6 - 29.92 29.92 10 CLR None
2019-06-24 05:56 62 57 - 83 220° 5 - 29.90 29.90 10 CLR None
2019-06-24 04:56 61 57 - 86 310° 3 - 29.91 29.90 10 CLR None
2019-06-24 03:56 64 57 - 77 220° 5 - 29.89 29.89 10 CLR None
2019-06-24 02:56 65 56 - 72 250° 6 - 29.90 29.89 10 CLR None
2019-06-24 01:56 66 56 - 69 250° 5 - 29.91 29.90 10 CLR 6-hr Min Temp (2am): 66.0°F
6-hr Max Temp (2am): 78.1°F
2019-06-24 00:56 67 56 - 67 250° 6 - 29.91 29.91 10 CLR 24-hr Min Temp (1am): 57.0°F
24-hr Max Temp (1am): 84.0°F
2019-06-23 23:56 68 55 - 63 250° 6 - 29.92 29.91 10 CLR None
2019-06-23 22:56 70 56 - 61 230° 5 - 29.92 29.91 10 CLR None
2019-06-23 21:56 72 56 76 57 230° 8 - 29.92 29.91 10 CLR None
2019-06-23 20:56 74 56 77 53 230° 6 - 29.91 29.90 10 CLR None

Support USWX by starting your Amazon purchase here.